createdAt,value
2018-11-20T00:02:05.548Z,72.22
2018-11-20T00:04:57.083Z,68.30
2018-11-20T00:07:44.071Z,63.05
2018-11-20T00:11:09.440Z,66.65
2018-11-20T00:14:00.356Z,64.07
2018-11-20T00:16:54.768Z,67.32
2018-11-20T00:19:46.469Z,66.70
2018-11-20T00:22:47.244Z,64.58
2018-11-20T00:25:34.729Z,69.67
2018-11-20T00:28:32.234Z,64.42
2018-11-20T00:31:25.304Z,70.85
2018-11-20T00:34:22.547Z,71.62
2018-11-20T00:37:17.269Z,63.05
2018-11-20T00:40:14.689Z,72.35
2018-11-20T00:43:09.730Z,66.82
2018-11-20T00:45:57.358Z,69.47
2018-11-20T00:48:51.888Z,68.30
2018-11-20T00:51:58.190Z,67.40
2018-11-20T00:55:05.073Z,62.58
2018-11-20T00:57:48.641Z,70.37
2018-11-20T01:00:35.793Z,67.90
2018-11-20T01:03:30.363Z,60.70
2018-11-20T01:06:24.599Z,71.70
2018-11-20T01:09:11.693Z,65.47
2018-11-20T01:12:15.586Z,62.23
2018-11-20T01:15:07.500Z,80.53
2018-11-20T01:18:00.609Z,61.18
2018-11-20T01:21:00.981Z,64.22
2018-11-20T01:23:55.563Z,70.40
2018-11-20T01:26:41.628Z,62.55
2018-11-20T01:29:24.416Z,66.30
2018-11-20T01:32:11.644Z,65.85
2018-11-20T01:35:07.250Z,62.75
2018-11-20T01:37:46.898Z,69.30
2018-11-20T01:40:50.740Z,58.92
2018-11-20T01:43:48.575Z,66.95
2018-11-20T01:46:40.064Z,57.60
2018-11-20T01:49:38.271Z,62.83
2018-11-20T01:52:30.260Z,60.65
2018-11-20T01:55:17.424Z,66.77
2018-11-20T01:58:05.282Z,67.22
2018-11-20T02:00:52.242Z,58.23
2018-11-20T02:03:40.916Z,60.85
2018-11-20T02:06:38.328Z,65.15
2018-11-20T02:09:46.122Z,72.25
2018-11-20T02:12:33.330Z,66.80
2018-11-20T02:15:20.232Z,62.33
2018-11-20T02:18:11.883Z,65.30
2018-11-20T02:21:18.594Z,64.32
2018-11-20T02:23:57.549Z,63.80
2018-11-20T02:26:54.981Z,67.85
2018-11-20T02:29:42.160Z,61.63
2018-11-20T02:32:42.580Z,60.98
2018-11-20T02:35:31.260Z,60.45
2018-11-20T02:38:18.768Z,64.10
2018-11-20T02:41:10.560Z,57.90
2018-11-20T02:44:07.895Z,61.40
2018-11-20T02:46:56.564Z,62.08
2018-11-20T02:49:39.911Z,61.77
2018-11-20T02:52:27.158Z,65.03
2018-11-20T02:55:16.094Z,60.80
2018-11-20T02:58:02.913Z,58.52
2018-11-20T03:00:50.090Z,60.20
2018-11-20T03:03:50.943Z,60.65
2018-11-20T03:06:44.430Z,60.43
2018-11-20T03:09:35.951Z,59.75
2018-11-20T03:12:33.551Z,59.18
2018-11-20T03:15:20.642Z,60.23
2018-11-20T03:18:06.307Z,61.45
2018-11-20T03:20:46.139Z,68.12
2018-11-20T03:23:24.797Z,67.78
2018-11-20T03:26:22.005Z,59.27
2018-11-20T03:29:27.067Z,64.58
2018-11-20T03:32:21.603Z,58.38
2018-11-20T03:35:16.924Z,58.85
2018-11-20T03:38:20.215Z,56.77
2018-11-20T03:41:05.960Z,55.60
2018-11-20T03:44:12.545Z,59.15
2018-11-20T03:46:59.891Z,55.43
2018-11-20T03:52:46.233Z,54.85
2018-11-20T04:01:47.083Z,53.20
2018-11-20T04:04:45.172Z,53.65
2018-11-20T04:07:30.101Z,52.17
2018-11-20T04:10:26.780Z,51.60
2018-11-20T04:13:15.331Z,54.65
2018-11-20T04:16:07.561Z,43.87
2018-11-20T04:19:15.336Z,55.85
2018-11-20T04:22:16.062Z,54.18
2018-11-20T04:25:19.430Z,54.63
2018-11-20T04:27:59.788Z,49.05
2018-11-20T04:31:18.514Z,54.20
2018-11-20T04:34:09.703Z,46.15
2018-11-20T04:37:04.325Z,49.33
2018-11-20T04:39:55.784Z,53.10
2018-11-20T04:42:42.829Z,47.83
2018-11-20T04:45:33.969Z,52.65
2018-11-20T04:48:11.476Z,51.45
2018-11-20T04:50:59.998Z,52.67
2018-11-20T04:53:57.765Z,48.95
2018-11-20T04:56:55.286Z,48.80
2018-11-20T04:59:57.017Z,51.53
2018-11-20T05:02:43.795Z,50.17
2018-11-20T05:05:31.003Z,47.25
2018-11-20T05:08:37.624Z,50.50
2018-11-20T05:11:26.237Z,51.05
2018-11-20T05:14:13.019Z,50.58
2018-11-20T05:17:13.418Z,50.00
2018-11-20T05:20:03.879Z,47.43
2018-11-20T05:22:58.496Z,46.10
2018-11-20T05:25:53.214Z,47.73
2018-11-20T05:28:40.206Z,53.92
2018-11-20T05:31:29.092Z,49.48
2018-11-20T05:34:14.528Z,46.02
2018-11-20T05:37:03.431Z,54.25
2018-11-20T05:39:54.894Z,49.42
2018-11-20T05:42:42.120Z,42.60
2018-11-20T05:45:29.409Z,45.95
2018-11-20T05:48:16.486Z,54.10
2018-11-20T05:51:03.686Z,44.10
2018-11-20T05:53:50.727Z,45.78
2018-11-20T05:56:39.289Z,48.52
2018-11-20T05:59:26.367Z,48.35
2018-11-20T06:02:26.738Z,47.73
2018-11-20T06:05:18.045Z,48.33
2018-11-20T06:08:00.367Z,51.77
2018-11-20T06:11:04.244Z,41.77
2018-11-20T06:14:00.097Z,47.90
2018-11-20T06:16:57.627Z,47.65
2018-11-20T06:19:44.649Z,40.08
2018-11-20T06:22:46.224Z,45.17
2018-11-20T06:25:37.849Z,44.27
2018-11-20T06:28:35.494Z,43.20
2018-11-20T06:31:28.097Z,36.60
2018-11-20T06:34:31.818Z,40.63
2018-11-20T06:37:18.879Z,42.88
2018-11-20T06:40:19.307Z,41.13
2018-11-20T06:43:26.296Z,38.45
2018-11-20T06:46:12.982Z,32.93
2018-11-20T06:49:13.440Z,35.73
2018-11-20T06:52:08.599Z,32.95
2018-11-20T06:55:03.097Z,32.08
2018-11-20T06:57:42.064Z,32.28
2018-11-20T07:00:29.374Z,29.85
2018-11-20T07:03:18.146Z,31.42
2018-11-20T07:06:07.515Z,29.25
2018-11-20T07:08:54.082Z,25.27
2018-11-20T07:12:00.590Z,23.02
2018-11-20T07:15:00.122Z,23.18
2018-11-20T07:18:06.889Z,21.42
2018-11-20T07:21:01.631Z,20.80
2018-11-20T07:23:44.122Z,22.42
2018-11-20T07:26:44.888Z,24.85
2018-11-20T07:29:36.620Z,22.15
2018-11-20T07:32:31.380Z,18.52
2018-11-20T07:35:15.869Z,20.27
2018-11-20T07:38:05.485Z,20.57
2018-11-20T07:40:52.289Z,24.20
2018-11-20T07:43:37.087Z,23.07
2018-11-20T07:46:20.192Z,19.55
2018-11-20T07:49:13.333Z,23.80
2018-11-20T07:52:11.086Z,21.73
2018-11-20T07:55:14.841Z,19.67
2018-11-20T07:58:06.589Z,19.90
2018-11-20T08:00:53.996Z,18.03
2018-11-20T08:03:40.961Z,20.27
2018-11-20T08:06:41.640Z,17.93
2018-11-20T08:09:28.720Z,18.67
2018-11-20T08:12:17.675Z,21.02
2018-11-20T08:15:13.521Z,21.50
2018-11-20T08:18:02.288Z,22.43
2018-11-20T08:20:50.535Z,22.48
2018-11-20T08:23:50.829Z,22.87
2018-11-20T08:26:48.775Z,19.77
2018-11-20T08:29:43.561Z,20.77
2018-11-20T08:32:41.340Z,21.53
2018-11-20T08:35:28.567Z,21.93
2018-11-20T08:38:23.364Z,19.20
2018-11-20T08:41:11.049Z,20.40
2018-11-20T08:43:59.950Z,20.47
2018-11-20T08:46:55.195Z,16.37
2018-11-20T08:49:46.800Z,19.37
2018-11-20T08:52:38.748Z,15.40
2018-11-20T08:55:34.194Z,16.10
2018-11-20T08:58:21.398Z,20.03
2018-11-20T09:01:27.958Z,17.70
2018-11-20T09:04:15.862Z,17.53
2018-11-20T09:07:02.543Z,16.67
2018-11-20T09:10:07.133Z,18.30
2018-11-20T09:12:54.659Z,17.50
2018-11-20T09:15:43.262Z,18.23
2018-11-20T09:18:35.221Z,19.10
2018-11-20T09:21:22.396Z,13.47
2018-11-20T09:24:10.996Z,17.50
2018-11-20T09:27:06.178Z,17.67
2018-11-20T09:29:55.185Z,14.57
2018-11-20T09:32:42.564Z,15.83
2018-11-20T09:35:31.687Z,14.77
2018-11-20T09:38:20.182Z,15.40
2018-11-20T09:41:27.496Z,21.23
2018-11-20T09:44:20.266Z,17.90
2018-11-20T09:47:09.081Z,14.87
2018-11-20T09:50:12.410Z,16.50
2018-11-20T09:53:07.418Z,15.60
2018-11-20T09:55:57.060Z,17.27
2018-11-20T09:58:44.241Z,16.70
2018-11-20T10:01:38.817Z,18.40
2018-11-20T10:04:36.775Z,19.07
2018-11-20T10:07:23.706Z,15.30
2018-11-20T10:10:15.860Z,14.30
2018-11-20T10:13:07.220Z,15.20
2018-11-20T10:15:54.506Z,17.13
2018-11-20T10:18:41.594Z,15.90
2018-11-20T10:21:42.987Z,14.53
2018-11-20T10:24:31.699Z,12.60
2018-11-20T10:27:30.782Z,14.30
2018-11-20T10:30:18.153Z,14.30
2018-11-20T10:32:59.727Z,14.30
2018-11-20T10:35:39.593Z,13.20
2018-11-20T10:38:22.074Z,11.63
2018-11-20T10:41:22.607Z,11.47
2018-11-20T10:44:09.672Z,11.63
2018-11-20T10:47:16.328Z,14.60
2018-11-20T10:50:13.647Z,13.03
2018-11-20T10:53:05.301Z,11.50
2018-11-20T10:55:52.685Z,14.30
2018-11-20T10:58:42.015Z,13.40
2018-11-20T11:01:29.718Z,13.43
2018-11-20T11:04:18.592Z,12.93
2018-11-20T11:07:07.851Z,10.83
2018-11-20T11:09:55.994Z,11.37
2018-11-20T11:12:43.280Z,12.10
2018-11-20T11:15:44.418Z,12.63
2018-11-20T11:18:32.075Z,13.63
2018-11-20T11:21:30.534Z,13.87
2018-11-20T11:24:22.877Z,15.10
2018-11-20T11:27:10.217Z,12.20
2018-11-20T11:30:07.501Z,14.30
2018-11-20T11:33:08.497Z,16.20
2018-11-20T11:35:59.941Z,12.27
2018-11-20T11:38:47.299Z,13.10
2018-11-20T11:41:48.084Z,14.47
2018-11-20T11:44:39.537Z,13.00
2018-11-20T11:47:41.566Z,14.60
2018-11-20T11:50:29.031Z,15.83
2018-11-20T11:53:27.189Z,13.63
2018-11-20T11:56:26.228Z,12.37
2018-11-20T11:59:21.824Z,13.97
2018-11-20T12:07:47.116Z,15.97
2018-11-20T12:10:36.362Z,17.57
2018-11-20T12:13:40.854Z,14.27
2018-11-20T12:16:29.679Z,13.57
2018-11-20T12:19:21.339Z,15.30
2018-11-20T12:22:25.975Z,14.67
2018-11-20T12:25:14.251Z,13.63
2018-11-20T12:28:01.823Z,15.33
2018-11-20T12:30:53.953Z,14.07
2018-11-20T12:33:51.429Z,15.70
2018-11-20T12:36:48.994Z,16.70
2018-11-20T12:39:44.457Z,17.43
2018-11-20T12:42:36.010Z,14.97
2018-11-20T12:45:23.798Z,14.90
2018-11-20T12:48:22.388Z,15.70
2018-11-20T12:51:13.574Z,13.63
2018-11-20T12:54:06.279Z,14.70
2018-11-20T12:56:54.978Z,14.93
2018-11-20T12:59:48.382Z,18.17
2018-11-20T13:02:40.167Z,16.60
2018-11-20T13:05:41.777Z,20.23
2018-11-20T13:08:36.527Z,14.97
2018-11-20T13:11:31.271Z,14.20
2018-11-20T13:14:26.486Z,16.77
2018-11-20T13:17:17.962Z,18.30
2018-11-20T13:20:08.107Z,17.70
2018-11-20T13:23:03.334Z,20.07
2018-11-20T13:26:07.715Z,14.33
2018-11-20T13:29:08.424Z,14.37
2018-11-20T13:31:57.626Z,14.03
2018-11-20T13:34:44.599Z,16.93
2018-11-20T13:37:45.930Z,15.87
2018-11-20T13:41:10.729Z,28.80
2018-11-20T13:44:08.602Z,15.23
2018-11-20T13:47:15.266Z,19.10
2018-11-20T13:50:08.992Z,14.53
2018-11-20T13:53:04.528Z,16.00
2018-11-20T13:56:02.497Z,16.20
2018-11-20T13:58:54.469Z,13.20
2018-11-20T14:01:41.830Z,15.43
2018-11-20T14:04:39.451Z,16.47
2018-11-20T14:07:43.877Z,18.20
2018-11-20T14:10:31.897Z,17.73
2018-11-20T14:13:19.552Z,14.13
2018-11-20T14:16:07.149Z,17.87
2018-11-20T14:19:11.296Z,14.87
2018-11-20T14:21:56.258Z,14.47
2018-11-20T14:24:44.538Z,15.90
2018-11-20T14:27:33.832Z,12.60
2018-11-20T14:30:32.027Z,13.13
2018-11-20T14:33:19.052Z,13.23
2018-11-20T14:36:15.227Z,16.67
2018-11-20T14:38:56.616Z,17.60
2018-11-20T14:41:45.359Z,16.53
2018-11-20T14:44:43.235Z,16.10
2018-11-20T14:47:30.247Z,18.73
2018-11-20T14:50:34.644Z,15.97
2018-11-20T14:53:29.595Z,18.80
2018-11-20T14:56:27.860Z,18.07
2018-11-20T14:59:17.303Z,17.50
2018-11-20T15:02:04.476Z,20.30
2018-11-20T15:04:52.187Z,15.90
2018-11-20T15:07:32.029Z,17.43
2018-11-20T15:10:22.139Z,18.77
2018-11-20T15:13:11.652Z,16.10
2018-11-20T15:15:59.224Z,14.20
2018-11-20T15:19:28.627Z,16.27
2018-11-20T15:22:16.680Z,18.70
2018-11-20T15:25:04.470Z,15.30
2018-11-20T15:27:55.476Z,17.47
2018-11-20T15:30:43.513Z,16.47
2018-11-20T15:33:39.224Z,20.00
2018-11-20T15:36:28.615Z,19.13
2018-11-20T15:39:13.338Z,16.70
2018-11-20T15:42:07.724Z,25.73
2018-11-20T15:45:04.732Z,17.20
2018-11-20T15:48:07.721Z,18.27
2018-11-20T15:50:54.227Z,17.80
2018-11-20T15:53:44.216Z,15.43
2018-11-20T15:56:35.834Z,16.63
2018-11-20T15:59:27.335Z,18.10
2018-11-20T16:02:14.641Z,17.47
2018-11-20T16:05:08.843Z,19.57
2018-11-20T16:08:06.276Z,20.23
2018-11-20T16:10:53.417Z,17.37
2018-11-20T16:13:35.428Z,16.87
2018-11-20T16:16:12.089Z,21.70
2018-11-20T16:19:12.119Z,19.53
2018-11-20T16:22:03.649Z,22.40
2018-11-20T16:25:03.601Z,18.47
2018-11-20T16:27:50.865Z,19.47
2018-11-20T16:30:56.943Z,17.20
2018-11-20T16:33:35.860Z,18.93
2018-11-20T16:36:21.820Z,20.43
2018-11-20T16:39:08.699Z,18.07
2018-11-20T16:41:57.214Z,18.77
2018-11-20T16:44:45.257Z,20.57
2018-11-20T16:47:32.138Z,21.20
2018-11-20T16:50:22.767Z,16.90
2018-11-20T16:53:11.635Z,17.30
2018-11-20T16:56:00.090Z,22.43
2018-11-20T16:58:40.277Z,19.30
2018-11-20T17:01:40.718Z,23.50
2018-11-20T17:04:35.016Z,23.50
2018-11-20T17:07:29.563Z,23.60
2018-11-20T17:10:15.756Z,22.50
2018-11-20T17:13:06.644Z,21.53
2018-11-20T17:15:51.430Z,21.23
2018-11-20T17:18:48.283Z,20.90
2018-11-20T17:21:42.432Z,22.62
2018-11-20T17:24:45.597Z,22.83
2018-11-20T17:27:32.351Z,20.10
2018-11-20T17:30:20.654Z,21.03
2018-11-20T17:33:23.979Z,21.57
2018-11-20T17:36:10.635Z,22.90
2018-11-20T17:38:58.009Z,20.80
2018-11-20T17:41:55.367Z,24.87
2018-11-20T17:44:41.882Z,21.73
2018-11-20T17:47:39.069Z,24.00
2018-11-20T17:50:26.627Z,20.43
2018-11-20T17:53:20.384Z,22.47
2018-11-20T17:56:07.187Z,24.87
2018-11-20T17:58:55.281Z,22.73
2018-11-20T18:01:50.178Z,23.07
2018-11-20T18:04:44.650Z,24.70
2018-11-20T18:07:39.046Z,22.20
2018-11-20T18:10:37.616Z,24.93
2018-11-20T18:13:21.812Z,20.57
2018-11-20T18:16:28.361Z,20.13
2018-11-20T18:19:22.328Z,24.27
2018-11-20T18:22:09.044Z,24.07
2018-11-20T18:24:55.665Z,28.77
2018-11-20T18:27:43.558Z,25.60
2018-11-20T18:30:30.850Z,29.37
2018-11-20T18:33:13.118Z,25.33
2018-11-20T18:36:03.649Z,25.83
2018-11-20T18:38:46.726Z,24.83
2018-11-20T18:41:49.985Z,29.27
2018-11-20T18:44:38.093Z,23.63
2018-11-20T18:47:29.447Z,24.77
2018-11-20T18:50:21.458Z,27.70
2018-11-20T18:53:08.351Z,28.90
2018-11-20T18:55:59.246Z,26.40
2018-11-20T18:58:47.241Z,31.13
2018-11-20T19:01:39.146Z,31.77
2018-11-20T19:04:39.156Z,26.07
2018-11-20T19:07:29.780Z,29.50
2018-11-20T19:10:24.136Z,29.23
2018-11-20T19:13:12.279Z,33.00
2018-11-20T19:16:00.430Z,29.80
2018-11-20T19:18:46.735Z,27.90
2018-11-20T19:21:27.111Z,29.00
2018-11-20T19:24:15.195Z,31.57
2018-11-20T19:27:04.147Z,31.63
2018-11-20T19:29:50.777Z,32.40
2018-11-20T19:32:27.225Z,25.20
2018-11-20T19:35:03.835Z,27.63
2018-11-20T19:37:57.979Z,26.43
2018-11-20T19:40:54.920Z,33.03
2018-11-20T19:43:43.543Z,29.33
2018-11-20T19:46:29.821Z,29.70
2018-11-20T19:49:17.814Z,28.63
2018-11-20T19:52:04.637Z,31.60
2018-11-20T19:54:47.950Z,30.40
2018-11-20T19:57:27.786Z,27.40
2018-11-20T20:00:15.948Z,32.40
2018-11-20T20:03:02.392Z,31.62
2018-11-20T20:05:56.879Z,27.25
2018-11-20T20:08:43.514Z,31.33
2018-11-20T20:11:35.612Z,31.82
2018-11-20T20:14:29.863Z,30.23
2018-11-20T20:17:20.695Z,31.25
2018-11-20T20:20:20.685Z,35.92
2018-11-20T20:23:07.480Z,28.70
2018-11-20T20:26:05.124Z,30.95
2018-11-20T20:28:52.250Z,30.50
2018-11-20T20:31:38.760Z,32.40
2018-11-20T20:34:36.866Z,35.23
2018-11-20T20:37:36.395Z,33.73
2018-11-20T20:40:24.337Z,34.15
2018-11-20T20:43:15.119Z,33.43
2018-11-20T20:45:58.485Z,32.27
2018-11-20T20:48:46.554Z,30.33
2018-11-20T20:51:40.196Z,33.23
2018-11-20T20:54:26.411Z,33.85
2018-11-20T20:57:15.691Z,32.05
2018-11-20T20:59:56.819Z,34.33
2018-11-20T21:02:46.384Z,30.20
2018-11-20T21:05:40.519Z,30.62
2018-11-20T21:08:28.175Z,31.45
2018-11-20T21:11:26.844Z,31.52
2018-11-20T21:14:17.821Z,33.42
2018-11-20T21:17:05.858Z,32.17
2018-11-20T21:20:03.874Z,32.70
2018-11-20T21:22:53.060Z,33.50
2018-11-20T21:25:41.265Z,31.80
2018-11-20T21:28:27.606Z,35.48
2018-11-20T21:31:14.897Z,35.98
2018-11-20T21:34:01.306Z,34.33
2018-11-20T21:36:47.242Z,36.15
2018-11-20T21:39:35.476Z,34.50
2018-11-20T21:42:22.439Z,32.28
2018-11-20T21:45:15.760Z,36.38
2018-11-20T21:47:59.255Z,35.52
2018-11-20T21:50:46.094Z,37.60
2018-11-20T21:53:26.757Z,35.60
2018-11-20T21:56:13.292Z,33.02
2018-11-20T21:59:10.272Z,35.48
2018-11-20T22:01:58.746Z,36.38
2018-11-20T22:04:45.565Z,36.70
2018-11-20T22:07:31.885Z,33.25
2018-11-20T22:10:19.221Z,37.10
2018-11-20T22:13:05.815Z,39.53
2018-11-20T22:15:53.699Z,37.08
2018-11-20T22:18:51.535Z,35.28
2018-11-20T22:21:42.295Z,34.80
2018-11-20T22:24:39.666Z,34.98
2018-11-20T22:27:26.228Z,35.45
2018-11-20T22:30:08.371Z,36.93
2018-11-20T22:32:55.133Z,41.60
2018-11-20T22:35:47.468Z,38.48
2018-11-20T22:38:35.600Z,43.92
2018-11-20T22:41:16.936Z,45.67
2018-11-20T22:44:11.710Z,42.53
2018-11-20T22:47:05.744Z,41.40
2018-11-20T22:50:05.679Z,40.60
2018-11-20T22:53:02.924Z,46.85
2018-11-20T22:55:49.567Z,45.10
2018-11-20T22:58:38.516Z,44.70
2018-11-20T23:01:29.461Z,40.75
2018-11-20T23:04:16.050Z,45.33
2018-11-20T23:07:02.590Z,47.78
2018-11-20T23:09:31.434Z,45.20
2018-11-20T23:12:00.140Z,50.63
2018-11-20T23:14:29.085Z,48.40
2018-11-20T23:16:57.870Z,48.98
2018-11-20T23:19:26.714Z,47.33
2018-11-20T23:21:55.661Z,48.02
2018-11-20T23:24:25.453Z,48.75
2018-11-20T23:26:54.490Z,47.65
2018-11-20T23:29:23.451Z,42.60
2018-11-20T23:31:52.236Z,46.55
2018-11-20T23:34:21.673Z,46.73
2018-11-20T23:36:50.536Z,43.73
2018-11-20T23:39:19.410Z,44.40
2018-11-20T23:41:48.215Z,48.45
2018-11-20T23:47:57.794Z,47.75
2018-11-20T23:50:26.651Z,47.78
2018-11-20T23:52:55.963Z,49.42
2018-11-20T23:55:25.206Z,46.42
2018-11-20T23:57:53.816Z,46.95
